sensor_id;sensor_type;location;lat;lon;timestamp;P1;durP1;ratioP1;P2;durP2;ratioP2
64875;SDS011;51369;49.862;9.908;2023-02-15T00:01:50;79.10;;;23.95;;
64875;SDS011;51369;49.862;9.908;2023-02-15T00:04:18;72.90;;;22.58;;
64875;SDS011;51369;49.862;9.908;2023-02-15T00:06:45;75.85;;;23.60;;
64875;SDS011;51369;49.862;9.908;2023-02-15T00:09:10;66.72;;;23.45;;
64875;SDS011;51369;49.862;9.908;2023-02-15T00:11:37;67.47;;;22.23;;
64875;SDS011;51369;49.862;9.908;2023-02-15T00:16:39;71.20;;;24.60;;
64875;SDS011;51369;49.862;9.908;2023-02-15T00:19:05;72.57;;;23.60;;
64875;SDS011;51369;49.862;9.908;2023-02-15T00:21:31;63.05;;;23.08;;
64875;SDS011;51369;49.862;9.908;2023-02-15T00:23:59;75.38;;;23.52;;
64875;SDS011;51369;49.862;9.908;2023-02-15T00:26:26;69.82;;;22.75;;
64875;SDS011;51369;49.862;9.908;2023-02-15T00:28:52;77.50;;;24.85;;
64875;SDS011;51369;49.862;9.908;2023-02-15T00:31:18;76.15;;;24.52;;
64875;SDS011;51369;49.862;9.908;2023-02-15T00:33:44;71.68;;;22.25;;
64875;SDS011;51369;49.862;9.908;2023-02-15T00:36:11;70.72;;;23.90;;
64875;SDS011;51369;49.862;9.908;2023-02-15T00:38:37;71.80;;;22.73;;
64875;SDS011;51369;49.862;9.908;2023-02-15T00:41:04;63.05;;;21.50;;
64875;SDS011;51369;49.862;9.908;2023-02-15T00:43:31;70.28;;;23.60;;
64875;SDS011;51369;49.862;9.908;2023-02-15T00:45:57;67.10;;;23.17;;
64875;SDS011;51369;49.862;9.908;2023-02-15T00:48:23;72.15;;;22.80;;
64875;SDS011;51369;49.862;9.908;2023-02-15T00:50:50;77.32;;;23.65;;
64875;SDS011;51369;49.862;9.908;2023-02-15T00:53:18;73.13;;;22.95;;
64875;SDS011;51369;49.862;9.908;2023-02-15T00:55:45;72.80;;;22.90;;
64875;SDS011;51369;49.862;9.908;2023-02-15T00:58:11;74.60;;;23.08;;
64875;SDS011;51369;49.862;9.908;2023-02-15T01:00:38;65.72;;;22.83;;
64875;SDS011;51369;49.862;9.908;2023-02-15T01:03:06;74.50;;;22.88;;
64875;SDS011;51369;49.862;9.908;2023-02-15T01:05:31;71.55;;;23.38;;
64875;SDS011;51369;49.862;9.908;2023-02-15T01:07:57;71.10;;;21.85;;
64875;SDS011;51369;49.862;9.908;2023-02-15T01:10:23;73.30;;;23.35;;
64875;SDS011;51369;49.862;9.908;2023-02-15T01:12:52;82.03;;;23.40;;
64875;SDS011;51369;49.862;9.908;2023-02-15T01:15:19;77.97;;;24.55;;
64875;SDS011;51369;49.862;9.908;2023-02-15T01:17:44;73.75;;;24.52;;
64875;SDS011;51369;49.862;9.908;2023-02-15T01:20:17;63.50;;;21.75;;
64875;SDS011;51369;49.862;9.908;2023-02-15T01:22:43;68.40;;;23.88;;
64875;SDS011;51369;49.862;9.908;2023-02-15T01:25:08;70.70;;;24.10;;
64875;SDS011;51369;49.862;9.908;2023-02-15T01:27:34;82.88;;;25.00;;
64875;SDS011;51369;49.862;9.908;2023-02-15T01:29:59;79.55;;;25.30;;
64875;SDS011;51369;49.862;9.908;2023-02-15T01:32:24;67.68;;;22.15;;
64875;SDS011;51369;49.862;9.908;2023-02-15T01:34:51;79.90;;;23.90;;
64875;SDS011;51369;49.862;9.908;2023-02-15T01:37:18;68.30;;;25.00;;
64875;SDS011;51369;49.862;9.908;2023-02-15T01:39:43;81.72;;;24.42;;
64875;SDS011;51369;49.862;9.908;2023-02-15T01:42:10;67.65;;;22.05;;
64875;SDS011;51369;49.862;9.908;2023-02-15T01:47:13;71.82;;;22.75;;
64875;SDS011;51369;49.862;9.908;2023-02-15T01:49:43;72.78;;;23.00;;
64875;SDS011;51369;49.862;9.908;2023-02-15T01:52:12;67.00;;;21.75;;
64875;SDS011;51369;49.862;9.908;2023-02-15T01:54:42;70.43;;;23.30;;
64875;SDS011;51369;49.862;9.908;2023-02-15T01:57:12;71.07;;;24.67;;
64875;SDS011;51369;49.862;9.908;2023-02-15T01:59:41;80.28;;;25.33;;
64875;SDS011;51369;49.862;9.908;2023-02-15T02:02:11;72.20;;;23.92;;
64875;SDS011;51369;49.862;9.908;2023-02-15T02:04:41;76.13;;;24.30;;
64875;SDS011;51369;49.862;9.908;2023-02-15T02:07:10;82.25;;;24.90;;
64875;SDS011;51369;49.862;9.908;2023-02-15T02:09:38;67.68;;;23.30;;
64875;SDS011;51369;49.862;9.908;2023-02-15T02:12:04;73.78;;;23.33;;
64875;SDS011;51369;49.862;9.908;2023-02-15T02:14:30;73.03;;;23.98;;
64875;SDS011;51369;49.862;9.908;2023-02-15T02:22:41;66.80;;;22.73;;
64875;SDS011;51369;49.862;9.908;2023-02-15T02:25:28;73.55;;;23.27;;
64875;SDS011;51369;49.862;9.908;2023-02-15T02:28:20;60.80;;;19.80;;
64875;SDS011;51369;49.862;9.908;2023-02-15T02:41:55;53.03;;;19.30;;
64875;SDS011;51369;49.862;9.908;2023-02-15T02:44:28;64.10;;;20.35;;
64875;SDS011;51369;49.862;9.908;2023-02-15T02:50:00;67.13;;;21.20;;
64875;SDS011;51369;49.862;9.908;2023-02-15T02:52:34;67.90;;;22.20;;
64875;SDS011;51369;49.862;9.908;2023-02-15T02:55:48;63.65;;;21.95;;
64875;SDS011;51369;49.862;9.908;2023-02-15T02:57:55;64.82;;;22.42;;
64875;SDS011;51369;49.862;9.908;2023-02-15T03:00:25;59.97;;;21.40;;
64875;SDS011;51369;49.862;9.908;2023-02-15T03:02:54;59.55;;;22.25;;
64875;SDS011;51369;49.862;9.908;2023-02-15T03:05:30;63.83;;;21.45;;
64875;SDS011;51369;49.862;9.908;2023-02-15T03:07:58;68.65;;;23.23;;
64875;SDS011;51369;49.862;9.908;2023-02-15T03:12:57;67.10;;;21.02;;
64875;SDS011;51369;49.862;9.908;2023-02-15T03:15:26;68.78;;;22.17;;
64875;SDS011;51369;49.862;9.908;2023-02-15T03:18:14;69.53;;;21.52;;
64875;SDS011;51369;49.862;9.908;2023-02-15T03:20:43;64.47;;;22.63;;
64875;SDS011;51369;49.862;9.908;2023-02-15T03:23:11;73.38;;;23.80;;
64875;SDS011;51369;49.862;9.908;2023-02-15T03:25:43;72.03;;;25.20;;
64875;SDS011;51369;49.862;9.908;2023-02-15T03:28:17;66.97;;;23.42;;
64875;SDS011;51369;49.862;9.908;2023-02-15T03:30:48;70.63;;;21.50;;
64875;SDS011;51369;49.862;9.908;2023-02-15T03:33:18;67.67;;;21.30;;
64875;SDS011;51369;49.862;9.908;2023-02-15T03:35:52;71.40;;;22.27;;
64875;SDS011;51369;49.862;9.908;2023-02-15T03:38:25;55.67;;;21.50;;
64875;SDS011;51369;49.862;9.908;2023-02-15T03:40:59;62.72;;;21.88;;
64875;SDS011;51369;49.862;9.908;2023-02-15T03:46:23;63.63;;;20.70;;
64875;SDS011;51369;49.862;9.908;2023-02-15T03:48:54;65.30;;;20.77;;
64875;SDS011;51369;49.862;9.908;2023-02-15T03:51:26;63.42;;;21.45;;
64875;SDS011;51369;49.862;9.908;2023-02-15T03:54:02;60.92;;;22.27;;
64875;SDS011;51369;49.862;9.908;2023-02-15T03:56:38;60.40;;;20.67;;
64875;SDS011;51369;49.862;9.908;2023-02-15T03:59:06;52.13;;;21.85;;
64875;SDS011;51369;49.862;9.908;2023-02-15T04:04:34;57.22;;;19.83;;
64875;SDS011;51369;49.862;9.908;2023-02-15T04:07:01;56.67;;;19.13;;
64875;SDS011;51369;49.862;9.908;2023-02-15T04:09:28;54.25;;;18.70;;
64875;SDS011;51369;49.862;9.908;2023-02-15T04:12:12;57.70;;;19.02;;
64875;SDS011;51369;49.862;9.908;2023-02-15T04:14:37;62.13;;;18.25;;
64875;SDS011;51369;49.862;9.908;2023-02-15T04:17:21;51.40;;;19.10;;
64875;SDS011;51369;49.862;9.908;2023-02-15T04:19:46;55.08;;;19.42;;
64875;SDS011;51369;49.862;9.908;2023-02-15T04:22:30;50.97;;;18.13;;
64875;SDS011;51369;49.862;9.908;2023-02-15T04:25:14;51.38;;;18.42;;
64875;SDS011;51369;49.862;9.908;2023-02-15T04:27:43;60.50;;;19.38;;
64875;SDS011;51369;49.862;9.908;2023-02-15T04:30:12;49.58;;;19.00;;
64875;SDS011;51369;49.862;9.908;2023-02-15T04:32:39;59.75;;;18.33;;
64875;SDS011;51369;49.862;9.908;2023-02-15T04:35:05;49.25;;;18.58;;
64875;SDS011;51369;49.862;9.908;2023-02-15T04:37:31;51.22;;;19.27;;
64875;SDS011;51369;49.862;9.908;2023-02-15T04:39:57;48.30;;;17.90;;
64875;SDS011;51369;49.862;9.908;2023-02-15T04:42:24;53.05;;;19.38;;
64875;SDS011;51369;49.862;9.908;2023-02-15T04:44:50;58.33;;;19.13;;
64875;SDS011;51369;49.862;9.908;2023-02-15T04:47:16;58.80;;;18.40;;
64875;SDS011;51369;49.862;9.908;2023-02-15T04:49:41;48.83;;;18.60;;
64875;SDS011;51369;49.862;9.908;2023-02-15T04:52:06;48.13;;;18.17;;
64875;SDS011;51369;49.862;9.908;2023-02-15T04:54:32;56.13;;;17.67;;
64875;SDS011;51369;49.862;9.908;2023-02-15T04:56:57;57.28;;;18.45;;
64875;SDS011;51369;49.862;9.908;2023-02-15T04:59:22;59.08;;;19.38;;
64875;SDS011;51369;49.862;9.908;2023-02-15T05:01:48;54.70;;;17.80;;
64875;SDS011;51369;49.862;9.908;2023-02-15T05:04:13;42.80;;;17.08;;
64875;SDS011;51369;49.862;9.908;2023-02-15T05:06:38;56.60;;;19.13;;
64875;SDS011;51369;49.862;9.908;2023-02-15T05:09:04;57.83;;;20.38;;
64875;SDS011;51369;49.862;9.908;2023-02-15T05:11:29;54.97;;;19.52;;
64875;SDS011;51369;49.862;9.908;2023-02-15T05:13:55;62.47;;;21.15;;
64875;SDS011;51369;49.862;9.908;2023-02-15T05:16:20;64.63;;;20.55;;
64875;SDS011;51369;49.862;9.908;2023-02-15T05:18:45;58.90;;;19.25;;
64875;SDS011;51369;49.862;9.908;2023-02-15T05:21:11;53.10;;;21.25;;
64875;SDS011;51369;49.862;9.908;2023-02-15T05:23:36;57.70;;;21.45;;
64875;SDS011;51369;49.862;9.908;2023-02-15T05:26:02;52.88;;;21.73;;
64875;SDS011;51369;49.862;9.908;2023-02-15T05:28:45;58.33;;;21.10;;
64875;SDS011;51369;49.862;9.908;2023-02-15T05:33:38;48.15;;;20.58;;
64875;SDS011;51369;49.862;9.908;2023-02-15T05:36:04;56.47;;;21.73;;
64875;SDS011;51369;49.862;9.908;2023-02-15T05:38:31;61.88;;;21.02;;
64875;SDS011;51369;49.862;9.908;2023-02-15T05:40:57;57.65;;;23.33;;
64875;SDS011;51369;49.862;9.908;2023-02-15T05:43:22;64.28;;;20.85;;
64875;SDS011;51369;49.862;9.908;2023-02-15T05:45:49;55.78;;;22.13;;
64875;SDS011;51369;49.862;9.908;2023-02-15T05:48:16;55.30;;;22.15;;
64875;SDS011;51369;49.862;9.908;2023-02-15T05:50:42;60.70;;;23.77;;
64875;SDS011;51369;49.862;9.908;2023-02-15T05:53:08;65.60;;;22.20;;
64875;SDS011;51369;49.862;9.908;2023-02-15T05:55:33;56.55;;;21.05;;
64875;SDS011;51369;49.862;9.908;2023-02-15T05:57:59;53.08;;;20.05;;
64875;SDS011;51369;49.862;9.908;2023-02-15T06:00:24;55.53;;;21.52;;
64875;SDS011;51369;49.862;9.908;2023-02-15T06:02:50;63.13;;;22.42;;
64875;SDS011;51369;49.862;9.908;2023-02-15T06:05:16;56.50;;;20.75;;
64875;SDS011;51369;49.862;9.908;2023-02-15T06:07:44;60.20;;;21.00;;
64875;SDS011;51369;49.862;9.908;2023-02-15T06:10:10;60.70;;;21.80;;
64875;SDS011;51369;49.862;9.908;2023-02-15T06:12:36;65.25;;;22.33;;
64875;SDS011;51369;49.862;9.908;2023-02-15T06:15:02;59.60;;;21.17;;
64875;SDS011;51369;49.862;9.908;2023-02-15T06:17:27;57.03;;;21.63;;
64875;SDS011;51369;49.862;9.908;2023-02-15T06:19:53;58.05;;;22.35;;
64875;SDS011;51369;49.862;9.908;2023-02-15T06:22:18;63.20;;;22.92;;
64875;SDS011;51369;49.862;9.908;2023-02-15T06:24:45;57.55;;;19.25;;
64875;SDS011;51369;49.862;9.908;2023-02-15T06:27:11;62.88;;;20.52;;
64875;SDS011;51369;49.862;9.908;2023-02-15T06:29:36;55.15;;;20.10;;
64875;SDS011;51369;49.862;9.908;2023-02-15T06:32:02;56.25;;;22.00;;
64875;SDS011;51369;49.862;9.908;2023-02-15T06:34:27;66.55;;;20.50;;
64875;SDS011;51369;49.862;9.908;2023-02-15T06:36:53;54.55;;;19.10;;
64875;SDS011;51369;49.862;9.908;2023-02-15T06:39:18;49.13;;;19.90;;
64875;SDS011;51369;49.862;9.908;2023-02-15T06:41:43;51.40;;;19.52;;
64875;SDS011;51369;49.862;9.908;2023-02-15T06:44:09;56.88;;;21.40;;
64875;SDS011;51369;49.862;9.908;2023-02-15T06:46:34;54.00;;;20.95;;
64875;SDS011;51369;49.862;9.908;2023-02-15T06:48:59;52.40;;;19.73;;
64875;SDS011;51369;49.862;9.908;2023-02-15T06:51:25;60.92;;;20.58;;
64875;SDS011;51369;49.862;9.908;2023-02-15T06:53:51;57.20;;;20.02;;
64875;SDS011;51369;49.862;9.908;2023-02-15T06:56:16;54.67;;;19.75;;
64875;SDS011;51369;49.862;9.908;2023-02-15T06:58:41;51.30;;;19.45;;
64875;SDS011;51369;49.862;9.908;2023-02-15T07:01:07;55.60;;;18.35;;
64875;SDS011;51369;49.862;9.908;2023-02-15T07:03:34;63.40;;;20.15;;
64875;SDS011;51369;49.862;9.908;2023-02-15T07:06:01;56.55;;;19.60;;
64875;SDS011;51369;49.862;9.908;2023-02-15T07:08:30;47.55;;;18.30;;
64875;SDS011;51369;49.862;9.908;2023-02-15T07:10:56;51.08;;;18.98;;
64875;SDS011;51369;49.862;9.908;2023-02-15T07:13:41;49.63;;;19.63;;
64875;SDS011;51369;49.862;9.908;2023-02-15T07:16:10;51.83;;;17.60;;
64875;SDS011;51369;49.862;9.908;2023-02-15T07:18:36;61.80;;;18.75;;
64875;SDS011;51369;49.862;9.908;2023-02-15T07:21:01;53.03;;;18.60;;
64875;SDS011;51369;49.862;9.908;2023-02-15T07:23:27;57.00;;;19.58;;
64875;SDS011;51369;49.862;9.908;2023-02-15T07:25:59;50.33;;;17.30;;
64875;SDS011;51369;49.862;9.908;2023-02-15T07:28:27;38.90;;;17.85;;
64875;SDS011;51369;49.862;9.908;2023-02-15T07:30:52;50.53;;;18.45;;
64875;SDS011;51369;49.862;9.908;2023-02-15T07:33:18;55.42;;;19.65;;
64875;SDS011;51369;49.862;9.908;2023-02-15T07:35:53;45.88;;;18.85;;
64875;SDS011;51369;49.862;9.908;2023-02-15T07:38:22;47.17;;;17.25;;
64875;SDS011;51369;49.862;9.908;2023-02-15T07:40:47;44.13;;;17.77;;
64875;SDS011;51369;49.862;9.908;2023-02-15T07:43:13;38.30;;;17.15;;
64875;SDS011;51369;49.862;9.908;2023-02-15T07:45:38;52.60;;;18.65;;
64875;SDS011;51369;49.862;9.908;2023-02-15T07:48:04;47.53;;;18.60;;
64875;SDS011;51369;49.862;9.908;2023-02-15T07:50:30;45.22;;;16.77;;
64875;SDS011;51369;49.862;9.908;2023-02-15T07:52:56;50.65;;;17.58;;
64875;SDS011;51369;49.862;9.908;2023-02-15T07:55:21;50.70;;;17.33;;
64875;SDS011;51369;49.862;9.908;2023-02-15T07:57:47;41.22;;;15.95;;
64875;SDS011;51369;49.862;9.908;2023-02-15T08:00:15;48.17;;;17.92;;
64875;SDS011;51369;49.862;9.908;2023-02-15T08:02:42;48.38;;;18.08;;
64875;SDS011;51369;49.862;9.908;2023-02-15T08:05:12;54.60;;;16.33;;
64875;SDS011;51369;49.862;9.908;2023-02-15T08:07:38;46.85;;;16.27;;
64875;SDS011;51369;49.862;9.908;2023-02-15T08:10:03;43.30;;;16.35;;
64875;SDS011;51369;49.862;9.908;2023-02-15T08:12:29;45.03;;;17.92;;
64875;SDS011;51369;49.862;9.908;2023-02-15T08:14:54;52.47;;;17.73;;
64875;SDS011;51369;49.862;9.908;2023-02-15T08:17:19;43.67;;;17.48;;
64875;SDS011;51369;49.862;9.908;2023-02-15T08:19:45;42.47;;;17.55;;
64875;SDS011;51369;49.862;9.908;2023-02-15T08:22:12;47.25;;;16.67;;
64875;SDS011;51369;49.862;9.908;2023-02-15T08:24:39;50.40;;;17.60;;
64875;SDS011;51369;49.862;9.908;2023-02-15T08:27:06;49.20;;;17.40;;
64875;SDS011;51369;49.862;9.908;2023-02-15T08:29:33;46.30;;;17.27;;
64875;SDS011;51369;49.862;9.908;2023-02-15T08:32:04;49.17;;;18.08;;
64875;SDS011;51369;49.862;9.908;2023-02-15T08:34:36;37.47;;;16.95;;
64875;SDS011;51369;49.862;9.908;2023-02-15T08:37:03;44.50;;;16.00;;
64875;SDS011;51369;49.862;9.908;2023-02-15T08:39:30;43.72;;;18.45;;
64875;SDS011;51369;49.862;9.908;2023-02-15T08:41:56;47.88;;;17.60;;
64875;SDS011;51369;49.862;9.908;2023-02-15T08:44:22;55.58;;;17.15;;
64875;SDS011;51369;49.862;9.908;2023-02-15T08:46:47;58.13;;;16.45;;
64875;SDS011;51369;49.862;9.908;2023-02-15T08:49:18;56.88;;;17.20;;
64875;SDS011;51369;49.862;9.908;2023-02-15T08:51:46;51.72;;;16.65;;
64875;SDS011;51369;49.862;9.908;2023-02-15T08:54:13;45.92;;;16.42;;
64875;SDS011;51369;49.862;9.908;2023-02-15T08:56:41;47.10;;;16.35;;
64875;SDS011;51369;49.862;9.908;2023-02-15T08:59:11;42.45;;;15.43;;
64875;SDS011;51369;49.862;9.908;2023-02-15T09:01:41;47.58;;;17.90;;
64875;SDS011;51369;49.862;9.908;2023-02-15T09:04:07;48.90;;;18.10;;
64875;SDS011;51369;49.862;9.908;2023-02-15T09:06:39;46.90;;;18.17;;
64875;SDS011;51369;49.862;9.908;2023-02-15T09:09:06;41.50;;;17.02;;
64875;SDS011;51369;49.862;9.908;2023-02-15T09:11:36;37.90;;;17.05;;
64875;SDS011;51369;49.862;9.908;2023-02-15T09:14:08;46.50;;;17.85;;
64875;SDS011;51369;49.862;9.908;2023-02-15T09:19:05;40.70;;;15.73;;
64875;SDS011;51369;49.862;9.908;2023-02-15T09:21:31;41.88;;;16.85;;
64875;SDS011;51369;49.862;9.908;2023-02-15T09:23:59;46.88;;;18.42;;
64875;SDS011;51369;49.862;9.908;2023-02-15T09:26:26;43.67;;;18.02;;
64875;SDS011;51369;49.862;9.908;2023-02-15T09:28:54;59.40;;;19.50;;
64875;SDS011;51369;49.862;9.908;2023-02-15T09:31:22;41.60;;;17.90;;
64875;SDS011;51369;49.862;9.908;2023-02-15T09:33:49;44.42;;;19.08;;
64875;SDS011;51369;49.862;9.908;2023-02-15T09:36:16;49.63;;;20.20;;
64875;SDS011;51369;49.862;9.908;2023-02-15T09:38:57;48.83;;;18.25;;
64875;SDS011;51369;49.862;9.908;2023-02-15T09:46:54;53.20;;;20.10;;
64875;SDS011;51369;49.862;9.908;2023-02-15T09:49:47;48.08;;;20.10;;
64875;SDS011;51369;49.862;9.908;2023-02-15T09:52:20;43.30;;;19.90;;
64875;SDS011;51369;49.862;9.908;2023-02-15T10:00:39;44.40;;;19.07;;
64875;SDS011;51369;49.862;9.908;2023-02-15T10:05:58;47.13;;;20.08;;
64875;SDS011;51369;49.862;9.908;2023-02-15T10:08:49;47.60;;;19.45;;
64875;SDS011;51369;49.862;9.908;2023-02-15T10:25:46;54.30;;;20.05;;
64875;SDS011;51369;49.862;9.908;2023-02-15T10:28:18;44.10;;;19.80;;
64875;SDS011;51369;49.862;9.908;2023-02-15T10:30:49;58.88;;;22.45;;
64875;SDS011;51369;49.862;9.908;2023-02-15T10:38:49;56.70;;;20.48;;
64875;SDS011;51369;49.862;9.908;2023-02-15T10:41:24;46.55;;;22.35;;
64875;SDS011;51369;49.862;9.908;2023-02-15T10:52:28;55.30;;;22.42;;
64875;SDS011;51369;49.862;9.908;2023-02-15T11:00:45;47.90;;;20.60;;
64875;SDS011;51369;49.862;9.908;2023-02-15T11:06:13;47.28;;;18.83;;
64875;SDS011;51369;49.862;9.908;2023-02-15T11:08:46;55.30;;;22.40;;
64875;SDS011;51369;49.862;9.908;2023-02-15T11:11:29;55.88;;;22.08;;
64875;SDS011;51369;49.862;9.908;2023-02-15T11:13:59;53.53;;;21.13;;
64875;SDS011;51369;49.862;9.908;2023-02-15T11:16:29;46.60;;;21.00;;
64875;SDS011;51369;49.862;9.908;2023-02-15T11:19:53;51.28;;;20.45;;
64875;SDS011;51369;49.862;9.908;2023-02-15T11:22:04;57.15;;;23.95;;
64875;SDS011;51369;49.862;9.908;2023-02-15T11:24:40;55.67;;;21.85;;
64875;SDS011;51369;49.862;9.908;2023-02-15T11:27:30;50.60;;;20.63;;
64875;SDS011;51369;49.862;9.908;2023-02-15T11:32:38;62.10;;;23.48;;
64875;SDS011;51369;49.862;9.908;2023-02-15T11:40:44;53.58;;;21.85;;
64875;SDS011;51369;49.862;9.908;2023-02-15T11:46:17;51.10;;;22.00;;
64875;SDS011;51369;49.862;9.908;2023-02-15T11:48:43;49.47;;;20.23;;
64875;SDS011;51369;49.862;9.908;2023-02-15T11:51:11;53.13;;;22.77;;
64875;SDS011;51369;49.862;9.908;2023-02-15T11:53:40;55.97;;;23.58;;
64875;SDS011;51369;49.862;9.908;2023-02-15T11:56:13;55.10;;;22.98;;
64875;SDS011;51369;49.862;9.908;2023-02-15T12:01:31;53.88;;;23.10;;
64875;SDS011;51369;49.862;9.908;2023-02-15T12:04:25;58.30;;;23.70;;
64875;SDS011;51369;49.862;9.908;2023-02-15T12:09:50;53.92;;;22.52;;
64875;SDS011;51369;49.862;9.908;2023-02-15T12:12:25;51.72;;;24.63;;
64875;SDS011;51369;49.862;9.908;2023-02-15T12:14:52;51.83;;;22.58;;
64875;SDS011;51369;49.862;9.908;2023-02-15T12:17:37;46.53;;;21.13;;
64875;SDS011;51369;49.862;9.908;2023-02-15T12:20:04;55.92;;;22.63;;
64875;SDS011;51369;49.862;9.908;2023-02-15T12:22:49;56.70;;;24.20;;
64875;SDS011;51369;49.862;9.908;2023-02-15T12:25:41;51.92;;;22.42;;
64875;SDS011;51369;49.862;9.908;2023-02-15T12:31:01;52.97;;;23.65;;
64875;SDS011;51369;49.862;9.908;2023-02-15T12:33:34;52.08;;;22.60;;
64875;SDS011;51369;49.862;9.908;2023-02-15T12:36:24;59.08;;;24.60;;
64875;SDS011;51369;49.862;9.908;2023-02-15T12:41:32;55.97;;;24.27;;
64875;SDS011;51369;49.862;9.908;2023-02-15T12:44:06;49.80;;;22.92;;
64875;SDS011;51369;49.862;9.908;2023-02-15T12:46:40;53.35;;;22.42;;
64875;SDS011;51369;49.862;9.908;2023-02-15T12:51:48;50.20;;;22.65;;
64875;SDS011;51369;49.862;9.908;2023-02-15T12:56:50;52.45;;;22.92;;
64875;SDS011;51369;49.862;9.908;2023-02-15T12:59:15;52.67;;;22.98;;
64875;SDS011;51369;49.862;9.908;2023-02-15T13:01:45;48.53;;;21.90;;
64875;SDS011;51369;49.862;9.908;2023-02-15T13:04:16;55.90;;;22.45;;
64875;SDS011;51369;49.862;9.908;2023-02-15T13:06:51;54.28;;;24.45;;
64875;SDS011;51369;49.862;9.908;2023-02-15T13:12:18;50.45;;;20.92;;
64875;SDS011;51369;49.862;9.908;2023-02-15T13:14:49;51.67;;;22.73;;
64875;SDS011;51369;49.862;9.908;2023-02-15T13:17:16;54.05;;;23.25;;
64875;SDS011;51369;49.862;9.908;2023-02-15T13:19:47;52.67;;;23.08;;
64875;SDS011;51369;49.862;9.908;2023-02-15T13:22:24;52.30;;;23.15;;
64875;SDS011;51369;49.862;9.908;2023-02-15T13:24:56;49.33;;;22.27;;
64875;SDS011;51369;49.862;9.908;2023-02-15T13:27:26;55.88;;;24.40;;
64875;SDS011;51369;49.862;9.908;2023-02-15T13:29:57;57.35;;;25.05;;
64875;SDS011;51369;49.862;9.908;2023-02-15T13:32:31;50.97;;;23.05;;
64875;SDS011;51369;49.862;9.908;2023-02-15T13:35:02;58.13;;;23.85;;
64875;SDS011;51369;49.862;9.908;2023-02-15T13:40:31;59.10;;;24.23;;
64875;SDS011;51369;49.862;9.908;2023-02-15T13:43:15;59.05;;;24.85;;
64875;SDS011;51369;49.862;9.908;2023-02-15T13:45:56;51.72;;;23.27;;
64875;SDS011;51369;49.862;9.908;2023-02-15T13:54:46;57.33;;;24.45;;
64875;SDS011;51369;49.862;9.908;2023-02-15T13:57:21;55.95;;;24.10;;
64875;SDS011;51369;49.862;9.908;2023-02-15T14:02:45;54.67;;;24.27;;
64875;SDS011;51369;49.862;9.908;2023-02-15T14:18:45;54.67;;;25.42;;
64875;SDS011;51369;49.862;9.908;2023-02-15T14:21:48;57.28;;;24.38;;
64875;SDS011;51369;49.862;9.908;2023-02-15T14:24:38;52.30;;;23.65;;
64875;SDS011;51369;49.862;9.908;2023-02-15T14:30:21;51.70;;;23.02;;
64875;SDS011;51369;49.862;9.908;2023-02-15T14:32:51;52.17;;;25.67;;
64875;SDS011;51369;49.862;9.908;2023-02-15T14:35:21;54.15;;;25.10;;
64875;SDS011;51369;49.862;9.908;2023-02-15T14:40:38;49.40;;;23.27;;
64875;SDS011;51369;49.862;9.908;2023-02-15T14:46:18;56.00;;;25.70;;
64875;SDS011;51369;49.862;9.908;2023-02-15T14:49:12;60.47;;;25.85;;
64875;SDS011;51369;49.862;9.908;2023-02-15T14:54:10;54.80;;;24.40;;
64875;SDS011;51369;49.862;9.908;2023-02-15T14:56:42;59.53;;;26.13;;
64875;SDS011;51369;49.862;9.908;2023-02-15T15:01:52;55.65;;;26.20;;
64875;SDS011;51369;49.862;9.908;2023-02-15T15:07:23;50.00;;;23.80;;
64875;SDS011;51369;49.862;9.908;2023-02-15T15:12:41;53.20;;;24.52;;
64875;SDS011;51369;49.862;9.908;2023-02-15T15:15:44;55.80;;;26.05;;
64875;SDS011;51369;49.862;9.908;2023-02-15T15:18:10;52.17;;;24.25;;
64875;SDS011;51369;49.862;9.908;2023-02-15T15:20:55;55.90;;;25.13;;
64875;SDS011;51369;49.862;9.908;2023-02-15T15:25:47;56.83;;;25.58;;
64875;SDS011;51369;49.862;9.908;2023-02-15T15:31:21;57.00;;;26.23;;
64875;SDS011;51369;49.862;9.908;2023-02-15T15:42:12;54.50;;;26.85;;
64875;SDS011;51369;49.862;9.908;2023-02-15T15:45:02;52.67;;;26.67;;
64875;SDS011;51369;49.862;9.908;2023-02-15T15:47:47;58.40;;;27.35;;
64875;SDS011;51369;49.862;9.908;2023-02-15T15:50:34;59.10;;;28.00;;
64875;SDS011;51369;49.862;9.908;2023-02-15T15:53:04;61.88;;;27.50;;
64875;SDS011;51369;49.862;9.908;2023-02-15T15:55:30;61.40;;;27.55;;
64875;SDS011;51369;49.862;9.908;2023-02-15T15:57:59;57.33;;;27.45;;
64875;SDS011;51369;49.862;9.908;2023-02-15T16:00:40;57.75;;;26.90;;
64875;SDS011;51369;49.862;9.908;2023-02-15T16:05:50;55.05;;;26.10;;
64875;SDS011;51369;49.862;9.908;2023-02-15T16:08:26;56.10;;;26.77;;
64875;SDS011;51369;49.862;9.908;2023-02-15T16:10:54;65.28;;;27.83;;
64875;SDS011;51369;49.862;9.908;2023-02-15T16:13:19;63.40;;;27.92;;
64875;SDS011;51369;49.862;9.908;2023-02-15T16:15:46;57.72;;;26.67;;
64875;SDS011;51369;49.862;9.908;2023-02-15T16:18:17;56.58;;;26.27;;
64875;SDS011;51369;49.862;9.908;2023-02-15T16:20:52;64.40;;;28.92;;
64875;SDS011;51369;49.862;9.908;2023-02-15T16:29:17;56.85;;;26.02;;
64875;SDS011;51369;49.862;9.908;2023-02-15T16:34:59;54.70;;;24.63;;
64875;SDS011;51369;49.862;9.908;2023-02-15T16:37:33;52.13;;;24.60;;
64875;SDS011;51369;49.862;9.908;2023-02-15T16:39:59;60.80;;;25.95;;
64875;SDS011;51369;49.862;9.908;2023-02-15T16:42:25;54.60;;;26.55;;
64875;SDS011;51369;49.862;9.908;2023-02-15T16:44:51;57.60;;;25.17;;
64875;SDS011;51369;49.862;9.908;2023-02-15T16:47:26;57.40;;;26.27;;
64875;SDS011;51369;49.862;9.908;2023-02-15T16:52:23;46.63;;;23.48;;
64875;SDS011;51369;49.862;9.908;2023-02-15T16:54:51;58.97;;;25.95;;
64875;SDS011;51369;49.862;9.908;2023-02-15T16:57:21;59.72;;;27.50;;
64875;SDS011;51369;49.862;9.908;2023-02-15T16:59:49;52.80;;;24.60;;
64875;SDS011;51369;49.862;9.908;2023-02-15T17:02:23;54.47;;;26.45;;
64875;SDS011;51369;49.862;9.908;2023-02-15T17:11:10;57.38;;;24.50;;
64875;SDS011;51369;49.862;9.908;2023-02-15T17:13:39;62.85;;;27.42;;
64875;SDS011;51369;49.862;9.908;2023-02-15T17:16:31;57.22;;;25.17;;
64875;SDS011;51369;49.862;9.908;2023-02-15T17:18:59;61.08;;;28.00;;
64875;SDS011;51369;49.862;9.908;2023-02-15T17:21:38;66.43;;;28.10;;
64875;SDS011;51369;49.862;9.908;2023-02-15T17:24:13;58.42;;;27.50;;
64875;SDS011;51369;49.862;9.908;2023-02-15T17:26:42;57.67;;;27.58;;
64875;SDS011;51369;49.862;9.908;2023-02-15T17:29:14;59.13;;;27.25;;
64875;SDS011;51369;49.862;9.908;2023-02-15T17:32:03;58.75;;;27.17;;
64875;SDS011;51369;49.862;9.908;2023-02-15T17:34:49;66.03;;;28.45;;
64875;SDS011;51369;49.862;9.908;2023-02-15T17:40:00;61.50;;;28.23;;
64875;SDS011;51369;49.862;9.908;2023-02-15T17:42:39;63.63;;;28.90;;
64875;SDS011;51369;49.862;9.908;2023-02-15T17:45:04;60.78;;;26.70;;
64875;SDS011;51369;49.862;9.908;2023-02-15T17:47:30;60.35;;;27.80;;
64875;SDS011;51369;49.862;9.908;2023-02-15T17:49:56;61.67;;;27.75;;
64875;SDS011;51369;49.862;9.908;2023-02-15T17:52:22;60.97;;;27.65;;
64875;SDS011;51369;49.862;9.908;2023-02-15T17:54:49;60.55;;;26.67;;
64875;SDS011;51369;49.862;9.908;2023-02-15T17:57:33;62.35;;;28.52;;
64875;SDS011;51369;49.862;9.908;2023-02-15T17:59:59;56.70;;;26.75;;
64875;SDS011;51369;49.862;9.908;2023-02-15T18:02:43;61.10;;;27.48;;